CheckWX is a tool to help pilots better visualize weather data.  It is not intended as a substitute for an official pre-flight weather briefing.

20:34:58 UTC

EGKK METAR
London Gatwick Airport
London, United Kingdom
Current

15 mins ago

EGKK 182020Z 23004KT CAVOK 05/05 Q1016
Observed
Feb-18 @ 20:20 UTC
Wind
  • 230° at 4 KTS
Visibility
10,000+ meters
Flight Rules
VFR
Cloud Levels
  • Clear skies
Temperature
C / 41°F
Dewpoint
C / 41°F
Humidity
100%
Altimeter
30" Hg
Pressure
1015.92 hPa
Previous

45 mins ago

EGKK 181950Z 22006KT CAVOK 06/05 Q1016
Observed
Feb-18 @ 19:50 UTC
Wind
  • 220° at 6 KTS
Visibility
10,000+ meters
Flight Rules
VFR
Cloud Levels
  • Clear skies
Temperature
C / 43°F
Dewpoint
C / 41°F
Humidity
93%
Altimeter
30" Hg
Pressure
1015.92 hPa
Previous

1 hour ago

EGKK 181920Z 23004KT 9999 SCT041 07/05 Q1016
Observed
Feb-18 @ 19:20 UTC
Wind
  • 230° at 4 KTS
Visibility
10,000+ meters
Flight Rules
VFR
Cloud Levels
  • Scattered at 4,100' AGL
Temperature
C / 45°F
Dewpoint
C / 41°F
Humidity
87%
Altimeter
30" Hg
Pressure
1015.92 hPa